»·PEaware :: N12123 KBLI-27W

N12123 :: KBLI-27W

FLIGHT INFORMATION

Flight Status: Arrived
Operator: Privately registered:
United States
More flights under this callsign
Pilot: Jared L. (31105)
Aircraft: CESSNA 172 SKYHAWK
(C172)
More flights by this aircraft type
Origin: KBLI Bellingham Intl
United States
Destination: 27W Lake Wenatchee State
United States
More flights between these airports :: More routes between these airports
Route:
File this flight plan on PilotEdge
Remarks:
Altitude:
(Current/Filed)
7,500ft
Speed:
(Current/Filed)
0kts
Departed: 06-Jul-23 11:53 AM
Arrived: 06-Jul-23 12:52 PM
Distance/Time
Traveled:
93nm/0:59
Distance/Time
To Go:
Arrived

Flight Plot

Page will automatically refresh every two minutes.

Flight plan parsing failed; only flown route is shown


Map Options




Map Legend


Flown Route
Filed Route
Departure Airport
Arrival Airport
Navaid (VOR, NDB)
Fix

Horizontal Profiles

Position Reports

Time Latitude Longitude Heading Altitude Ground
Speed
06-Jul-23 11:51 48.660526 -122.326260 86 4610ft 101kts
06-Jul-23 11:52 48.658676 -122.284352 110 4856ft 101kts
06-Jul-23 11:54 48.651508 -122.236516 135 5010ft 105kts
06-Jul-23 11:55 48.624965 -122.224904 177 5217ft 104kts
06-Jul-23 11:56 48.596920 -122.219307 164 5559ft 100kts
06-Jul-23 11:56 48.573397 -122.210842 170 5546ft 106kts
06-Jul-23 11:57 48.543638 -122.200848 148 5356ft 110kts
06-Jul-23 11:58 48.530814 -122.163638 101 5487ft 100kts
06-Jul-23 12:00 48.529117 -122.113426 92 5560ft 108kts
06-Jul-23 12:01 48.530676 -122.067642 91 5616ft 106kts
06-Jul-23 12:01 48.528496 -122.030051 105 5651ft 106kts
06-Jul-23 12:02 48.525486 -121.983392 93 5487ft 120kts
06-Jul-23 12:03 48.524820 -121.934173 91 5514ft 109kts
06-Jul-23 12:04 48.524545 -121.888806 92 5518ft 107kts
06-Jul-23 12:05 48.523541 -121.842244 100 5377ft 110kts
06-Jul-23 12:06 48.518813 -121.798609 107 5333ft 102kts
06-Jul-23 12:07 48.506550 -121.760441 120 5369ft 104kts
06-Jul-23 12:08 48.495170 -121.720611 117 5444ft 103kts
06-Jul-23 12:09 48.482528 -121.681481 117 5495ft 103kts
06-Jul-23 12:10 48.473250 -121.640403 121 5487ft 105kts
06-Jul-23 12:11 48.450344 -121.615445 152 5527ft 103kts
06-Jul-23 12:12 48.426060 -121.593375 176 5566ft 102kts
06-Jul-23 12:13 48.398335 -121.584243 172 5589ft 102kts
06-Jul-23 12:14 48.370274 -121.578880 174 5610ft 101kts
06-Jul-23 12:15 48.342688 -121.585667 198 5589ft 101kts
06-Jul-23 12:16 48.313243 -121.584622 189 5414ft 108kts
06-Jul-23 12:17 48.286876 -121.607160 213 5044ft 108kts
06-Jul-23 12:18 48.260775 -121.600494 154 5398ft 96kts
06-Jul-23 12:19 48.239755 -121.578411 137 5864ft 93kts
06-Jul-23 12:20 48.225138 -121.546327 124 6228ft 94kts
06-Jul-23 12:21 48.212141 -121.512643 120 6592ft 94kts
06-Jul-23 12:22 48.196138 -121.482308 144 6926ft 93kts
06-Jul-23 12:23 48.177650 -121.456397 121 7282ft 91kts
06-Jul-23 12:24 48.173266 -121.417742 112 7471ft 93kts
06-Jul-23 12:25 48.159522 -121.385930 139 7593ft 86kts
06-Jul-23 12:26 48.142785 -121.360111 140 8074ft 85kts
06-Jul-23 12:27 48.126428 -121.333039 137 8398ft 89kts
06-Jul-23 12:28 48.110428 -121.303391 130 8719ft 90kts
06-Jul-23 12:29 48.096661 -121.272804 129 8963ft 89kts
06-Jul-23 12:30 48.080122 -121.246098 131 9193ft 85kts
06-Jul-23 12:31 48.063983 -121.216333 134 9451ft 103kts
06-Jul-23 12:32 48.046344 -121.180454 131 9828ft 111kts
06-Jul-23 12:33 48.031714 -121.143394 133 10651ft 93kts
06-Jul-23 12:34 48.013777 -121.115246 146 10651ft 93kts
06-Jul-23 12:35 47.990029 -121.099543 157 11029ft 96kts
06-Jul-23 12:36 47.968713 -121.077751 130 11392ft 90kts
06-Jul-23 12:37 47.955302 -121.042511 124 11203ft 97kts
06-Jul-23 12:38 47.940741 -121.008588 133 10616ft 94kts
06-Jul-23 12:39 47.924094 -120.977426 134 9988ft 95kts
06-Jul-23 12:40 47.908418 -120.942373 129 8974ft 105kts
06-Jul-23 12:41 47.890712 -120.906566 135 8034ft 107kts
06-Jul-23 12:42 47.871316 -120.875264 133 6870ft 102kts
06-Jul-23 12:43 47.854013 -120.842028 131 5804ft 98kts
06-Jul-23 12:44 47.840142 -120.804243 110 4742ft 115kts
06-Jul-23 12:45 47.829509 -120.761871 136 3327ft 101kts
06-Jul-23 12:46 47.819918 -120.720630 112 2133ft 109kts
06-Jul-23 12:47 47.805833 -120.690133 127 2727ft 81kts
06-Jul-23 12:48 47.801745 -120.662435 341 3173ft 88kts
06-Jul-23 12:49 47.812677 -120.692243 288 2510ft 74kts
06-Jul-23 12:50 47.819431 -120.719604 286 1933ft 46kts
06-Jul-23 12:51 47.819830 -120.721349 110 1931ft 17kts
06-Jul-23 12:52 47.818253 -120.715319 157 1928ft 8kts
06-Jul-23 12:53 47.818085 -120.715424 289 1926ft 0kts
06-Jul-23 12:54 47.818085 -120.715424 289 1926ft 0kts

Navigation Log

Ident Type
Flight plan parsing failed, navigation log unavailable